createdAt,value
2023-08-10T00:00:26.461Z,97689.47
2023-08-10T00:02:53.659Z,97679.25
2023-08-10T00:05:20.814Z,97683.56
2023-08-10T00:07:47.529Z,97683.78
2023-08-10T00:10:14.202Z,97688.22
2023-08-10T00:12:40.969Z,97692.44
2023-08-10T00:15:08.293Z,97690.94
2023-08-10T00:17:35.314Z,97679.53
2023-08-10T00:20:02.260Z,97688.22
2023-08-10T00:22:29.085Z,97699.72
2023-08-10T00:24:55.938Z,97699.06
2023-08-10T00:27:23.788Z,97698.47
2023-08-10T00:29:50.510Z,97699.59
2023-08-10T00:32:17.548Z,97702.66
2023-08-10T00:34:44.235Z,97702.00
2023-08-10T00:37:10.912Z,97695.84
2023-08-10T00:39:38.232Z,97700.56
2023-08-10T00:42:05.551Z,97709.53
2023-08-10T00:44:32.559Z,97719.03
2023-08-10T00:46:59.831Z,97708.97
2023-08-10T00:49:27.614Z,97701.91
2023-08-10T00:51:54.581Z,97711.41
2023-08-10T00:54:21.352Z,97708.53
2023-08-10T00:56:48.088Z,97713.41
2023-08-10T00:59:14.852Z,97706.50
2023-08-10T01:01:41.772Z,97707.47
2023-08-10T01:04:08.561Z,97712.38
2023-08-10T01:06:50.055Z,97706.13
2023-08-10T01:09:45.484Z,97719.81
2023-08-10T01:12:18.836Z,97717.28
2023-08-10T01:15:04.266Z,97710.56
2023-08-10T01:17:38.635Z,97717.53
2023-08-10T01:20:09.214Z,97716.69
2023-08-10T01:22:51.563Z,97719.44
2023-08-10T01:25:21.328Z,97718.97
2023-08-10T01:27:48.732Z,97716.13
2023-08-10T01:30:16.255Z,97714.19
2023-08-10T01:32:43.035Z,97715.91
2023-08-10T01:35:11.685Z,97716.13
2023-08-10T01:37:38.793Z,97721.03
2023-08-10T01:40:09.864Z,97725.72
2023-08-10T01:42:36.852Z,97725.38
2023-08-10T01:45:06.292Z,97726.16
2023-08-10T01:47:37.936Z,97730.50
2023-08-10T01:50:08.025Z,97733.09
2023-08-10T01:52:47.290Z,97736.19
2023-08-10T01:55:15.042Z,97723.00
2023-08-10T01:57:41.801Z,97733.47
2023-08-10T02:00:09.309Z,97728.69
2023-08-10T02:02:36.288Z,97736.31
2023-08-10T02:05:03.218Z,97733.31
2023-08-10T02:07:29.912Z,97731.59
2023-08-10T02:09:56.806Z,97743.00
2023-08-10T02:12:24.838Z,97730.94
2023-08-10T02:14:52.882Z,97733.53
2023-08-10T02:17:19.678Z,97742.41
2023-08-10T02:19:46.421Z,97744.81
2023-08-10T02:22:13.089Z,97747.88
2023-08-10T02:24:39.795Z,97747.75
2023-08-10T02:27:06.648Z,97754.25
2023-08-10T02:29:33.443Z,97751.16
2023-08-10T02:32:02.188Z,97749.91
2023-08-10T02:34:29.342Z,97754.81
2023-08-10T02:36:56.053Z,97753.22
2023-08-10T02:39:22.834Z,97743.63
2023-08-10T02:41:49.798Z,97749.75
2023-08-10T02:44:16.600Z,97754.56
2023-08-10T02:46:43.641Z,97751.16
2023-08-10T02:49:10.336Z,97751.16
2023-08-10T02:51:37.084Z,97755.56
2023-08-10T02:54:03.840Z,97752.25
2023-08-10T02:56:30.537Z,97758.19
2023-08-10T02:58:57.258Z,97752.19
2023-08-10T03:01:23.942Z,97757.97
2023-08-10T03:03:50.711Z,97759.56
2023-08-10T03:06:17.386Z,97760.22
2023-08-10T03:08:44.970Z,97760.69
2023-08-10T03:11:11.797Z,97762.28
2023-08-10T03:13:38.470Z,97770.72
2023-08-10T03:16:05.681Z,97764.09
2023-08-10T03:18:32.369Z,97771.97
2023-08-10T03:20:59.053Z,97765.69
2023-08-10T03:23:25.973Z,97771.44
2023-08-10T03:25:52.772Z,97775.31
2023-08-10T03:28:19.715Z,97774.19
2023-08-10T03:30:46.478Z,97774.91
2023-08-10T03:33:13.157Z,97779.34
2023-08-10T03:35:39.813Z,97779.97
2023-08-10T03:38:06.917Z,97768.88
2023-08-10T03:40:33.741Z,97770.91
2023-08-10T03:43:00.438Z,97771.91
2023-08-10T03:45:27.177Z,97778.16
2023-08-10T03:47:53.947Z,97780.59
2023-08-10T03:50:21.035Z,97783.91
2023-08-10T03:52:47.790Z,97783.44
2023-08-10T03:55:15.919Z,97784.56
2023-08-10T03:57:43.541Z,97794.50
2023-08-10T04:00:11.610Z,97789.50
2023-08-10T04:02:38.668Z,97788.03
2023-08-10T04:05:07.644Z,97793.28
2023-08-10T04:07:34.955Z,97792.16
2023-08-10T04:10:02.323Z,97793.16
2023-08-10T04:12:29.212Z,97790.16
2023-08-10T04:14:55.919Z,97789.84
2023-08-10T04:17:22.736Z,97804.41
2023-08-10T04:19:49.492Z,97797.16
2023-08-10T04:22:16.563Z,97793.63
2023-08-10T04:24:43.240Z,97801.75
2023-08-10T04:27:09.976Z,97802.66
2023-08-10T04:29:36.776Z,97805.75
2023-08-10T04:32:03.849Z,97797.66
2023-08-10T04:34:30.748Z,97798.69
2023-08-10T04:36:57.474Z,97808.94
2023-08-10T04:39:24.184Z,97799.53
2023-08-10T04:41:50.910Z,97810.56
2023-08-10T04:44:17.572Z,97804.84
2023-08-10T04:46:44.233Z,97808.88
2023-08-10T04:49:11.870Z,97821.84
2023-08-10T04:51:38.540Z,97810.91
2023-08-10T04:54:05.710Z,97815.41
2023-08-10T04:56:32.664Z,97819.84
2023-08-10T04:58:59.340Z,97821.53
2023-08-10T05:01:26.122Z,97814.53
2023-08-10T05:03:52.919Z,97829.63
2023-08-10T05:06:19.678Z,97827.53
2023-08-10T05:08:46.344Z,97825.13
2023-08-10T05:11:13.138Z,97823.72
2023-08-10T05:13:39.854Z,97823.72
2023-08-10T05:16:06.667Z,97827.84
2023-08-10T05:18:35.495Z,97836.50
2023-08-10T05:21:04.174Z,97841.31
2023-08-10T05:23:30.853Z,97839.50
2023-08-10T05:25:58.188Z,97834.38
2023-08-10T05:28:24.913Z,97841.78
2023-08-10T05:30:51.851Z,97842.50
2023-08-10T05:33:18.522Z,97845.16
2023-08-10T05:35:45.282Z,97847.19
2023-08-10T05:38:12.138Z,97847.06
2023-08-10T05:40:38.836Z,97847.78
2023-08-10T05:43:06.140Z,97847.38
2023-08-10T05:45:32.943Z,97851.56
2023-08-10T05:47:59.682Z,97855.81
2023-08-10T05:50:26.589Z,97850.59
2023-08-10T05:52:53.427Z,97852.09
2023-08-10T05:55:20.244Z,97856.66
2023-08-10T05:57:46.982Z,97868.88
2023-08-10T06:00:15.606Z,97868.66
2023-08-10T06:02:42.670Z,97867.97
2023-08-10T06:05:10.177Z,97871.16
2023-08-10T06:07:38.211Z,97869.81
2023-08-10T06:10:05.985Z,97878.50
2023-08-10T06:12:33.303Z,97878.84
2023-08-10T06:15:00.445Z,97874.03
2023-08-10T06:17:27.536Z,97886.59
2023-08-10T06:19:57.292Z,97885.09
2023-08-10T06:22:25.988Z,97898.00
2023-08-10T06:24:52.776Z,97891.84
2023-08-10T06:27:19.507Z,97893.44
2023-08-10T06:29:46.189Z,97897.75
2023-08-10T06:32:13.269Z,97890.25
2023-08-10T06:34:39.995Z,97899.03
2023-08-10T06:37:06.733Z,97896.06
2023-08-10T06:39:33.475Z,97900.97
2023-08-10T06:42:00.209Z,97897.31
2023-08-10T06:44:26.886Z,97898.59
2023-08-10T06:46:53.631Z,97902.91
2023-08-10T06:49:22.690Z,97913.28
2023-08-10T06:51:50.937Z,97915.00
2023-08-10T06:54:17.995Z,97912.78
2023-08-10T06:56:44.728Z,97911.53
2023-08-10T07:01:41.389Z,97918.28
2023-08-10T07:04:09.061Z,97911.53
2023-08-10T07:06:36.063Z,97910.16
2023-08-10T07:09:03.021Z,97907.06
2023-08-10T07:11:29.794Z,97912.47
2023-08-10T07:13:56.641Z,97915.56
2023-08-10T07:16:23.508Z,97916.53
2023-08-10T07:18:50.411Z,97919.22
2023-08-10T07:21:17.189Z,97922.78
2023-08-10T07:23:43.942Z,97912.03
2023-08-10T07:26:11.494Z,97922.25
2023-08-10T07:28:38.735Z,97919.50
2023-08-10T07:31:05.474Z,97924.56
2023-08-10T07:33:32.800Z,97930.16
2023-08-10T07:36:00.680Z,97929.00
2023-08-10T07:38:30.254Z,97926.03
2023-08-10T07:40:57.013Z,97921.41
2023-08-10T07:43:23.999Z,97918.44
2023-08-10T07:45:50.698Z,97918.19
2023-08-10T07:48:17.650Z,97919.63
2023-08-10T07:50:44.449Z,97930.13
2023-08-10T07:53:11.118Z,97927.66
2023-08-10T07:55:38.571Z,97925.75
2023-08-10T07:58:05.296Z,97921.13
2023-08-10T08:00:31.975Z,97919.91
2023-08-10T08:02:58.791Z,97916.44
2023-08-10T08:05:25.683Z,97923.38
2023-08-10T08:07:52.358Z,97918.50
2023-08-10T08:10:19.075Z,97915.50
2023-08-10T08:12:45.827Z,97921.22
2023-08-10T08:15:12.639Z,97917.47
2023-08-10T08:18:17.062Z,97922.28
2023-08-10T08:20:44.064Z,97921.22
2023-08-10T08:23:14.174Z,97914.78
2023-08-10T08:25:41.100Z,97910.72
2023-08-10T08:28:08.012Z,97906.28
2023-08-10T08:30:34.727Z,97905.91
2023-08-10T08:33:01.561Z,97907.44
2023-08-10T08:35:28.453Z,97910.34
2023-08-10T08:37:55.289Z,97901.25
2023-08-10T08:40:22.318Z,97907.94
2023-08-10T08:42:50.315Z,97897.13
2023-08-10T08:45:17.569Z,97902.78
2023-08-10T08:47:45.782Z,97906.69
2023-08-10T08:50:12.991Z,97901.13
2023-08-10T08:52:41.523Z,97898.03
2023-08-10T08:55:08.775Z,97906.88
2023-08-10T08:57:35.545Z,97891.00
2023-08-10T09:00:02.881Z,97895.72
2023-08-10T09:02:29.911Z,97885.91
2023-08-10T09:05:00.646Z,97895.41
2023-08-10T09:07:31.503Z,97897.78
2023-08-10T09:09:59.108Z,97894.53
2023-08-10T09:12:41.064Z,97892.34
2023-08-10T09:15:12.398Z,97891.25
2023-08-10T09:17:44.979Z,97899.44
2023-08-10T09:20:18.834Z,97902.72
2023-08-10T09:22:46.059Z,97899.91
2023-08-10T09:25:12.792Z,97905.84
2023-08-10T09:27:39.480Z,97902.75
2023-08-10T09:30:08.901Z,97897.59
2023-08-10T09:32:36.535Z,97904.97
2023-08-10T09:35:05.183Z,97901.44
2023-08-10T09:37:31.885Z,97912.03
2023-08-10T09:40:07.129Z,97900.66
2023-08-10T09:42:35.000Z,97910.09
2023-08-10T09:45:07.024Z,97912.63
2023-08-10T09:47:41.832Z,97903.81
2023-08-10T09:50:15.526Z,97905.66
2023-08-10T09:52:43.283Z,97902.41
2023-08-10T09:55:14.496Z,97900.44
2023-08-10T09:57:46.447Z,97891.03
2023-08-10T10:00:19.890Z,97895.19
2023-08-10T10:02:47.981Z,97887.16
2023-08-10T10:07:49.449Z,97886.06
2023-08-10T10:10:17.466Z,97895.09
2023-08-10T10:12:49.775Z,97881.16
2023-08-10T10:15:17.978Z,97883.59
2023-08-10T10:17:44.792Z,97885.72
2023-08-10T10:20:12.990Z,97884.38
2023-08-10T10:22:40.053Z,97893.78
2023-08-10T10:25:14.579Z,97889.38
2023-08-10T10:27:41.594Z,97883.81
2023-08-10T10:30:19.566Z,97895.88
2023-08-10T10:32:48.588Z,97891.59
2023-08-10T10:35:25.023Z,97892.66
2023-08-10T10:37:57.307Z,97838.59
2023-08-10T10:40:25.253Z,97876.28
2023-08-10T10:43:08.739Z,97870.63
2023-08-10T10:45:38.408Z,97877.78
2023-08-10T10:48:08.024Z,97877.50
2023-08-10T10:50:36.474Z,97883.78
2023-08-10T10:53:08.489Z,97876.47
2023-08-10T10:55:35.198Z,97872.59
2023-08-10T10:58:07.397Z,97872.69
2023-08-10T11:00:36.030Z,97871.81
2023-08-10T11:03:05.392Z,97871.56
2023-08-10T11:05:32.406Z,97880.16
2023-08-10T11:08:04.770Z,97877.91
2023-08-10T11:10:36.005Z,97878.72
2023-08-10T11:13:10.628Z,97881.75
2023-08-10T11:15:40.656Z,97883.78
2023-08-10T11:18:12.724Z,97869.41
2023-08-10T11:20:46.638Z,97871.25
2023-08-10T11:23:14.007Z,97875.41
2023-08-10T11:25:51.873Z,97864.00
2023-08-10T11:28:22.137Z,97872.91
2023-08-10T11:30:49.879Z,97878.84
2023-08-10T11:35:51.797Z,97887.78
2023-08-10T11:38:18.626Z,97877.25
2023-08-10T11:40:45.973Z,97878.34
2023-08-10T11:43:21.354Z,97877.94
2023-08-10T11:45:49.692Z,97880.81
2023-08-10T11:48:19.047Z,97876.16
2023-08-10T11:50:46.999Z,97876.31
2023-08-10T11:53:20.573Z,97866.59
2023-08-10T11:55:52.357Z,97867.44
2023-08-10T11:58:20.493Z,97863.94
2023-08-10T12:00:52.420Z,97868.88
2023-08-10T12:03:26.361Z,97866.28
2023-08-10T12:05:56.134Z,97852.88
2023-08-10T12:08:32.934Z,97862.84
2023-08-10T12:11:01.911Z,97865.81
2023-08-10T12:13:29.310Z,97857.63
2023-08-10T12:15:57.390Z,97860.34
2023-08-10T12:18:25.113Z,97858.78
2023-08-10T12:20:53.541Z,97856.44
2023-08-10T12:23:21.708Z,97853.56
2023-08-10T12:25:50.106Z,97858.72
2023-08-10T12:28:18.833Z,97859.47
2023-08-10T12:30:46.136Z,97854.13
2023-08-10T12:33:13.265Z,97840.22
2023-08-10T12:35:40.760Z,97843.25
2023-08-10T12:38:08.400Z,97848.16
2023-08-10T12:40:35.457Z,97844.19
2023-08-10T12:43:02.161Z,97844.22
2023-08-10T12:45:28.961Z,97842.63
2023-08-10T12:48:00.835Z,97852.84
2023-08-10T12:50:28.761Z,97835.59
2023-08-10T12:52:56.094Z,97840.47
2023-08-10T12:55:23.446Z,97832.91
2023-08-10T12:57:50.404Z,97840.25
2023-08-10T13:00:19.827Z,97834.78
2023-08-10T13:02:47.605Z,97843.69
2023-08-10T13:05:15.133Z,97836.91
2023-08-10T13:07:43.364Z,97835.50
2023-08-10T13:10:13.966Z,97824.19
2023-08-10T13:12:43.045Z,97825.38
2023-08-10T13:15:10.075Z,97830.91
2023-08-10T13:17:37.271Z,97824.88
2023-08-10T13:20:04.717Z,97827.34
2023-08-10T13:22:34.440Z,97833.69
2023-08-10T13:25:02.707Z,97821.78
2023-08-10T13:27:29.430Z,97823.28
2023-08-10T13:29:56.254Z,97823.53
2023-08-10T13:32:24.001Z,97837.28
2023-08-10T13:34:51.366Z,97829.34
2023-08-10T13:37:19.053Z,97819.72
2023-08-10T13:39:45.817Z,97822.00
2023-08-10T13:42:12.826Z,97816.88
2023-08-10T13:44:39.733Z,97807.56
2023-08-10T13:47:06.563Z,97818.66
2023-08-10T13:49:45.099Z,97814.53
2023-08-10T13:52:20.484Z,97813.63
2023-08-10T13:54:47.167Z,97806.94
2023-08-10T13:57:14.001Z,97804.91
2023-08-10T13:59:41.055Z,97811.25
2023-08-10T14:02:09.961Z,97810.91
2023-08-10T14:04:37.279Z,97809.69
2023-08-10T14:07:05.824Z,97815.22
2023-08-10T14:09:35.465Z,97812.13
2023-08-10T14:12:02.397Z,97816.16
2023-08-10T14:14:31.166Z,97812.34
2023-08-10T14:16:58.073Z,97818.41
2023-08-10T14:19:25.229Z,97817.28
2023-08-10T14:21:52.368Z,97806.28
2023-08-10T14:24:19.240Z,97811.34
2023-08-10T14:26:45.972Z,97820.88
2023-08-10T14:29:12.804Z,97815.34
2023-08-10T14:31:40.888Z,97819.66
2023-08-10T14:34:07.683Z,97814.88
2023-08-10T14:36:34.785Z,97816.88
2023-08-10T14:39:01.616Z,97817.63
2023-08-10T14:41:28.412Z,97803.44
2023-08-10T14:43:55.772Z,97813.75
2023-08-10T14:46:23.751Z,97816.50
2023-08-10T14:48:52.374Z,97810.97
2023-08-10T14:51:19.239Z,97816.13
2023-08-10T14:53:46.079Z,97812.59
2023-08-10T14:56:13.103Z,97818.47
2023-08-10T14:58:39.895Z,97820.28
2023-08-10T15:01:06.624Z,97815.09
2023-08-10T15:03:33.422Z,97818.59
2023-08-10T15:06:08.156Z,97816.56
2023-08-10T15:08:36.133Z,97813.16
2023-08-10T15:11:07.076Z,97818.56
2023-08-10T15:13:35.281Z,97828.00
2023-08-10T15:16:02.855Z,97818.84
2023-08-10T15:18:30.230Z,97815.63
2023-08-10T15:20:57.363Z,97795.03
2023-08-10T15:23:40.058Z,97823.34
2023-08-10T15:26:09.078Z,97811.50
2023-08-10T15:28:38.035Z,97812.69
2023-08-10T15:31:07.665Z,97823.56
2023-08-10T15:33:34.543Z,97811.91
2023-08-10T15:36:01.454Z,97818.44
2023-08-10T15:38:28.465Z,97808.88
2023-08-10T15:40:56.685Z,97815.25
2023-08-10T15:43:23.571Z,97816.13
2023-08-10T15:45:51.821Z,97821.16
2023-08-10T15:48:19.323Z,97828.50
2023-08-10T15:50:46.239Z,97827.16
2023-08-10T15:53:12.936Z,97822.69
2023-08-10T15:55:39.807Z,97823.94
2023-08-10T15:58:06.574Z,97829.09
2023-08-10T16:00:34.322Z,97828.38
2023-08-10T16:03:01.708Z,97835.59
2023-08-10T16:05:28.659Z,97836.38
2023-08-10T16:07:55.381Z,97834.75
2023-08-10T16:10:22.331Z,97826.00
2023-08-10T16:12:49.074Z,97835.28
2023-08-10T16:15:15.765Z,97829.06
2023-08-10T16:17:42.482Z,97838.97
2023-08-10T16:20:11.590Z,97840.28
2023-08-10T16:22:39.482Z,97838.34
2023-08-10T16:25:06.401Z,97842.72
2023-08-10T16:27:33.503Z,97836.75
2023-08-10T16:30:00.239Z,97834.44
2023-08-10T16:32:27.295Z,97834.38
2023-08-10T16:34:54.537Z,97835.44
2023-08-10T16:37:21.437Z,97834.50
2023-08-10T16:39:48.264Z,97841.53
2023-08-10T16:42:15.494Z,97833.19
2023-08-10T16:44:42.203Z,97837.06
2023-08-10T16:47:09.390Z,97848.81
2023-08-10T16:49:36.169Z,97843.13
2023-08-10T16:52:02.929Z,97849.66
2023-08-10T16:54:29.658Z,97841.34
2023-08-10T16:56:57.322Z,97848.00
2023-08-10T16:59:24.085Z,97854.47
2023-08-10T17:01:50.864Z,97842.97
2023-08-10T17:04:18.790Z,97855.88
2023-08-10T17:06:45.528Z,97861.34
2023-08-10T17:09:12.316Z,97854.97
2023-08-10T17:11:39.012Z,97856.13
2023-08-10T17:14:05.904Z,97856.44
2023-08-10T17:16:33.371Z,97865.81
2023-08-10T17:19:00.258Z,97857.50
2023-08-10T17:21:27.115Z,97858.94
2023-08-10T17:23:53.928Z,97861.34
2023-08-10T17:26:20.714Z,97864.28
2023-08-10T17:28:47.441Z,97871.19
2023-08-10T17:31:15.458Z,97865.13
2023-08-10T17:33:42.824Z,97877.97
2023-08-10T17:36:09.680Z,97875.94
2023-08-10T17:38:36.658Z,97877.06
2023-08-10T17:41:03.637Z,97874.03
2023-08-10T17:43:33.412Z,97876.16
2023-08-10T17:46:00.257Z,97885.09
2023-08-10T17:48:26.950Z,97880.72
2023-08-10T17:50:53.859Z,97883.09
2023-08-10T17:53:20.563Z,97889.53
2023-08-10T17:55:48.960Z,97879.88
2023-08-10T17:58:15.705Z,97882.25
2023-08-10T18:00:45.341Z,97885.41
2023-08-10T18:03:12.543Z,97883.31
2023-08-10T18:05:39.478Z,97893.16
2023-08-10T18:08:06.521Z,97896.22
2023-08-10T18:10:33.223Z,97898.84
2023-08-10T18:13:00.073Z,97892.13
2023-08-10T18:15:26.731Z,97901.78
2023-08-10T18:17:53.538Z,97904.97
2023-08-10T18:20:22.889Z,97902.47
2023-08-10T18:22:50.570Z,97905.75
2023-08-10T18:25:17.539Z,97902.38
2023-08-10T18:27:44.254Z,97911.78
2023-08-10T18:30:13.082Z,97916.53
2023-08-10T18:32:41.902Z,97920.91
2023-08-10T18:35:09.190Z,97925.03
2023-08-10T18:37:35.973Z,97925.31
2023-08-10T18:40:04.100Z,97929.88
2023-08-10T18:42:30.853Z,97929.09
2023-08-10T18:44:57.720Z,97938.38
2023-08-10T18:47:24.447Z,97933.47
2023-08-10T18:49:54.186Z,97948.56
2023-08-10T18:52:22.459Z,97948.94
2023-08-10T18:54:49.407Z,97947.78
2023-08-10T18:57:16.265Z,97941.13
2023-08-10T18:59:42.983Z,97948.44
2023-08-10T19:02:09.993Z,97947.88
2023-08-10T19:04:36.845Z,97944.13
2023-08-10T19:07:03.666Z,97941.16
2023-08-10T19:09:30.343Z,97944.03
2023-08-10T19:11:57.629Z,97946.97
2023-08-10T19:14:25.038Z,97948.81
2023-08-10T19:16:52.025Z,97947.19
2023-08-10T19:19:18.970Z,97955.31
2023-08-10T19:21:47.065Z,97957.28
2023-08-10T19:24:13.740Z,97963.78
2023-08-10T19:26:40.419Z,97961.81
2023-08-10T19:29:07.152Z,97959.97
2023-08-10T19:31:33.902Z,97961.81
2023-08-10T19:34:00.667Z,97963.25
2023-08-10T19:36:27.360Z,97968.63
2023-08-10T19:38:54.041Z,97970.78
2023-08-10T19:41:20.736Z,97961.75
2023-08-10T19:43:47.833Z,97969.06
2023-08-10T19:46:14.713Z,97966.06
2023-08-10T19:48:41.821Z,97971.91
2023-08-10T19:51:08.498Z,97969.38
2023-08-10T19:53:35.263Z,97969.25
2023-08-10T19:56:02.444Z,97976.59
2023-08-10T19:58:29.193Z,97981.50
2023-08-10T20:00:56.049Z,97971.22
2023-08-10T20:03:26.280Z,97976.00
2023-08-10T20:05:53.031Z,97980.34
2023-08-10T20:08:20.314Z,97974.72
2023-08-10T20:10:47.002Z,97984.59
2023-08-10T20:13:14.158Z,97977.53
2023-08-10T20:15:41.985Z,97978.69
2023-08-10T20:18:09.035Z,97971.44
2023-08-10T20:20:36.970Z,97974.41
2023-08-10T20:23:04.427Z,97975.72
2023-08-10T20:25:31.186Z,97976.06
2023-08-10T20:27:58.911Z,97977.88
2023-08-10T20:30:25.665Z,97979.19
2023-08-10T20:32:52.416Z,97974.47
2023-08-10T20:35:19.289Z,97970.38
2023-08-10T20:37:46.039Z,97970.25
2023-08-10T20:40:13.041Z,97969.91
2023-08-10T20:42:39.816Z,97971.50
2023-08-10T20:45:07.182Z,97965.38
2023-08-10T20:47:35.050Z,97969.91
2023-08-10T20:50:06.491Z,97969.91
2023-08-10T20:52:33.192Z,97971.03
2023-08-10T20:55:00.001Z,97971.25
2023-08-10T20:57:26.682Z,97970.47
2023-08-10T20:59:53.449Z,97965.09
2023-08-10T21:02:20.331Z,97967.22
2023-08-10T21:04:47.049Z,97962.22
2023-08-10T21:07:14.614Z,97968.66
2023-08-10T21:09:41.963Z,97965.44
2023-08-10T21:12:10.291Z,97975.56
2023-08-10T21:14:36.999Z,97961.28
2023-08-10T21:17:05.313Z,97975.28
2023-08-10T21:19:33.536Z,97983.28
2023-08-10T21:22:00.292Z,97980.38
2023-08-10T21:24:27.299Z,97984.88
2023-08-10T21:26:54.002Z,97977.81
2023-08-10T21:29:20.728Z,97974.63
2023-08-10T21:31:47.419Z,97971.59
2023-08-10T21:34:14.114Z,97976.28
2023-08-10T21:36:42.525Z,97974.97
2023-08-10T21:39:09.325Z,97979.03
2023-08-10T21:41:36.024Z,97979.69
2023-08-10T21:44:02.868Z,97978.56
2023-08-10T21:46:29.603Z,97983.41
2023-08-10T21:48:56.353Z,97984.88
2023-08-10T21:51:23.092Z,97978.94
2023-08-10T21:53:49.841Z,97979.91
2023-08-10T21:56:16.527Z,97984.59
2023-08-10T21:58:43.323Z,97981.72
2023-08-10T22:01:10.136Z,97977.06
2023-08-10T22:03:39.491Z,97981.09
2023-08-10T22:06:06.122Z,97979.19
2023-08-10T22:08:32.803Z,97976.13
2023-08-10T22:10:59.673Z,97972.59
2023-08-10T22:13:26.652Z,97971.00
2023-08-10T22:15:53.525Z,97971.00
2023-08-10T22:18:20.410Z,97971.63
2023-08-10T22:20:47.762Z,97971.81
2023-08-10T22:23:14.493Z,97975.81
2023-08-10T22:25:41.199Z,97977.56
2023-08-10T22:28:08.475Z,97972.75
2023-08-10T22:30:36.080Z,97980.00
2023-08-10T22:33:03.644Z,97970.84
2023-08-10T22:35:30.889Z,97980.00
2023-08-10T22:37:57.701Z,97983.50
2023-08-10T22:40:24.859Z,97975.47
2023-08-10T22:42:51.574Z,97978.22
2023-08-10T22:45:18.654Z,97983.19
2023-08-10T22:47:45.497Z,97984.16
2023-08-10T22:50:14.849Z,97983.03
2023-08-10T22:52:45.085Z,97979.50
2023-08-10T22:55:12.544Z,97982.88
2023-08-10T22:57:40.050Z,97982.53
2023-08-10T23:00:07.765Z,97983.66
2023-08-10T23:02:34.992Z,97973.72
2023-08-10T23:05:02.157Z,97983.19
2023-08-10T23:07:28.876Z,97983.84
2023-08-10T23:09:56.331Z,97968.59
2023-08-10T23:12:27.201Z,97978.53
2023-08-10T23:14:54.951Z,97949.66
2023-08-10T23:17:22.703Z,97978.06
2023-08-10T23:19:49.584Z,97985.25
2023-08-10T23:22:17.183Z,97968.91
2023-08-10T23:24:44.059Z,97977.25
2023-08-10T23:27:10.814Z,97978.38
2023-08-10T23:29:38.195Z,97975.66
2023-08-10T23:32:05.848Z,97972.28
2023-08-10T23:34:33.201Z,97973.53
2023-08-10T23:37:00.086Z,97978.66
2023-08-10T23:39:26.761Z,97979.88
2023-08-10T23:41:53.575Z,97979.84
2023-08-10T23:44:20.710Z,97975.94
2023-08-10T23:46:47.500Z,97977.44
2023-08-10T23:49:14.357Z,97977.56
2023-08-10T23:51:41.097Z,97974.13
2023-08-10T23:54:07.875Z,97973.66
2023-08-10T23:56:34.934Z,97971.09
2023-08-10T23:59:03.101Z,97975.50
